createdAt,value
2023-02-11T00:00:01.326Z,6.02
2023-02-11T00:05:01.349Z,6.03
2023-02-11T00:10:00.752Z,5.99
2023-02-11T00:15:00.530Z,6.01
2023-02-11T00:20:00.767Z,5.97
2023-02-11T00:25:00.799Z,5.98
2023-02-11T00:30:00.531Z,6.00
2023-02-11T00:35:00.528Z,6.00
2023-02-11T00:40:00.540Z,5.98
2023-02-11T00:45:01.276Z,5.98
2023-02-11T00:50:00.952Z,5.97
2023-02-11T00:55:00.879Z,5.95
2023-02-11T01:00:01.208Z,5.98
2023-02-11T01:05:00.570Z,5.98
2023-02-11T01:10:00.596Z,5.97
2023-02-11T01:15:00.749Z,5.96
2023-02-11T01:20:03.788Z,5.96
2023-02-11T01:25:00.568Z,5.89
2023-02-11T01:30:00.652Z,5.91
2023-02-11T01:35:00.749Z,5.87
2023-02-11T01:40:01.171Z,5.85
2023-02-11T01:45:20.407Z,5.86
2023-02-11T01:50:01.276Z,5.83
2023-02-11T01:55:07.589Z,5.83
2023-02-11T02:00:08.752Z,5.80
2023-02-11T02:05:13.677Z,5.80
2023-02-11T02:10:10.171Z,5.75
2023-02-11T02:15:20.409Z,5.74
2023-02-11T02:20:13.793Z,5.73
2023-02-11T02:25:09.066Z,5.68
2023-02-11T02:30:10.545Z,5.70
2023-02-11T02:35:17.065Z,5.65
2023-02-11T02:40:03.792Z,5.62
2023-02-11T02:45:00.765Z,5.59
2023-02-11T02:50:01.016Z,5.60
2023-02-11T02:55:01.540Z,5.59
2023-02-11T03:00:13.609Z,5.64
2023-02-11T03:05:09.102Z,5.55
2023-02-11T03:10:08.293Z,5.57
2023-02-11T03:15:03.148Z,5.53
2023-02-11T03:20:02.546Z,5.51
2023-02-11T03:25:01.741Z,5.47
2023-02-11T03:30:09.959Z,5.46
2023-02-11T03:35:10.895Z,5.45
2023-02-11T03:40:07.099Z,5.45
2023-02-11T03:45:07.464Z,5.38
2023-02-11T03:50:04.664Z,5.31
2023-02-11T03:55:06.226Z,5.25
2023-02-11T04:00:02.549Z,5.16
2023-02-11T04:05:01.065Z,5.11
2023-02-11T04:10:00.836Z,5.14
2023-02-11T04:15:00.535Z,5.12
2023-02-11T04:20:00.713Z,5.13
2023-02-11T04:25:00.616Z,5.10
2023-02-11T04:30:01.081Z,5.04
2023-02-11T04:35:00.535Z,4.99
2023-02-11T04:40:00.763Z,4.96
2023-02-11T04:45:00.534Z,4.93
2023-02-11T04:50:00.547Z,4.92
2023-02-11T04:55:00.559Z,4.95
2023-02-11T05:00:01.906Z,5.00
2023-02-11T05:05:00.680Z,5.00
2023-02-11T05:10:00.592Z,5.01
2023-02-11T05:15:00.518Z,5.00
2023-02-11T05:20:00.530Z,5.06
2023-02-11T05:25:00.536Z,5.10
2023-02-11T05:30:00.636Z,5.14
2023-02-11T05:35:00.503Z,5.15
2023-02-11T05:40:00.547Z,5.11
2023-02-11T05:45:00.966Z,5.08
2023-02-11T05:50:00.553Z,5.06
2023-02-11T05:55:00.514Z,5.09
2023-02-11T06:00:01.721Z,5.12
2023-02-11T06:05:00.658Z,5.16
2023-02-11T06:10:00.570Z,5.19
2023-02-11T06:15:00.513Z,5.24
2023-02-11T06:20:00.507Z,5.28
2023-02-11T06:25:02.174Z,5.33
2023-02-11T06:30:00.526Z,5.35
2023-02-11T06:35:00.710Z,5.41
2023-02-11T06:40:00.747Z,5.43
2023-02-11T06:45:00.536Z,5.46
2023-02-11T06:50:00.533Z,5.53
2023-02-11T06:55:00.552Z,5.58
2023-02-11T07:00:01.333Z,5.59
2023-02-11T07:05:00.536Z,5.66
2023-02-11T07:10:00.869Z,5.71
2023-02-11T07:15:00.772Z,5.76
2023-02-11T07:20:00.593Z,5.77
2023-02-11T07:25:00.559Z,5.77
2023-02-11T07:30:00.626Z,5.74
2023-02-11T07:35:00.616Z,5.76
2023-02-11T07:40:00.575Z,5.77
2023-02-11T07:45:01.095Z,5.76
2023-02-11T07:50:00.545Z,5.81
2023-02-11T07:55:02.145Z,5.85
2023-02-11T08:00:02.763Z,5.88
2023-02-11T08:05:00.508Z,5.92
2023-02-11T08:10:00.567Z,5.99
2023-02-11T08:15:00.504Z,6.06
2023-02-11T08:20:00.517Z,6.10
2023-02-11T08:25:00.573Z,6.19
2023-02-11T08:30:00.571Z,6.21
2023-02-11T08:35:00.509Z,6.24
2023-02-11T08:40:00.560Z,6.30
2023-02-11T08:45:00.536Z,6.34
2023-02-11T08:50:00.625Z,6.42
2023-02-11T08:55:00.500Z,6.43
2023-02-11T09:00:01.229Z,6.48
2023-02-11T09:05:00.509Z,6.51
2023-02-11T09:10:00.520Z,6.53
2023-02-11T09:15:00.521Z,6.56
2023-02-11T09:20:00.517Z,6.66
2023-02-11T09:25:00.516Z,6.76
2023-02-11T09:30:00.530Z,6.83
2023-02-11T09:35:00.530Z,6.92
2023-02-11T09:40:00.559Z,7.04
2023-02-11T09:45:02.674Z,7.18
2023-02-11T09:50:09.325Z,7.26
2023-02-11T09:55:03.967Z,7.31
2023-02-11T10:00:11.857Z,7.39
2023-02-11T10:05:10.467Z,7.35
2023-02-11T10:10:10.968Z,7.36
2023-02-11T10:15:11.553Z,7.27
2023-02-11T10:20:10.440Z,7.28
2023-02-11T10:25:15.401Z,7.29
2023-02-11T10:30:06.566Z,7.33
2023-02-11T10:35:09.150Z,7.40
2023-02-11T10:40:00.514Z,7.48
2023-02-11T10:45:03.812Z,7.57
2023-02-11T10:50:00.528Z,7.66
2023-02-11T10:55:03.797Z,7.78
2023-02-11T11:00:07.789Z,7.90
2023-02-11T11:05:13.125Z,7.96
2023-02-11T11:10:05.631Z,8.03
2023-02-11T11:15:10.458Z,8.08
2023-02-11T11:20:20.437Z,8.17
2023-02-11T11:25:00.525Z,8.25
2023-02-11T11:30:00.875Z,8.42
2023-02-11T11:35:04.790Z,8.68
2023-02-11T11:40:08.438Z,8.80
2023-02-11T11:45:11.941Z,8.85
2023-02-11T11:50:16.488Z,8.90
2023-02-11T11:55:10.456Z,8.97
2023-02-11T12:00:02.267Z,9.00
2023-02-11T12:05:10.503Z,9.08
2023-02-11T12:10:13.753Z,9.05
2023-02-11T12:15:10.474Z,9.16
2023-02-11T12:20:20.400Z,9.18
2023-02-11T12:25:16.543Z,9.21
2023-02-11T12:30:15.907Z,9.25
2023-02-11T12:35:07.332Z,9.36
2023-02-11T12:40:10.486Z,9.38
2023-02-11T12:45:15.640Z,9.40
2023-02-11T12:50:12.665Z,9.45
2023-02-11T12:55:07.260Z,9.49
2023-02-11T13:00:15.616Z,9.56
2023-02-11T13:05:20.416Z,9.67
2023-02-11T13:10:14.503Z,9.72
2023-02-11T13:15:05.932Z,9.71
2023-02-11T13:20:12.628Z,9.73
2023-02-11T13:25:13.400Z,9.71
2023-02-11T13:30:20.422Z,9.71
2023-02-11T13:35:00.526Z,9.72
2023-02-11T13:40:04.791Z,9.79
2023-02-11T13:45:00.878Z,9.83
2023-02-11T13:50:04.940Z,9.81
2023-02-11T13:55:05.737Z,9.83
2023-02-11T14:00:16.732Z,9.91
2023-02-11T14:05:03.779Z,9.82
2023-02-11T14:10:00.508Z,9.86
2023-02-11T14:15:11.520Z,9.94
2023-02-11T14:20:11.939Z,9.94
2023-02-11T14:25:03.586Z,9.92
2023-02-11T14:30:07.164Z,9.93
2023-02-11T14:35:06.764Z,9.94
2023-02-11T14:40:20.407Z,9.99
2023-02-11T14:45:07.951Z,9.87
2023-02-11T14:50:00.814Z,9.83
2023-02-11T14:55:08.021Z,9.77
2023-02-11T15:00:15.150Z,9.72
2023-02-11T15:05:20.418Z,9.69
2023-02-11T15:10:00.625Z,9.65
2023-02-11T15:15:00.603Z,9.62
2023-02-11T15:20:01.375Z,9.55
2023-02-11T15:25:09.309Z,9.51
2023-02-11T15:30:00.587Z,9.46
2023-02-11T15:35:00.577Z,9.43
2023-02-11T15:40:19.270Z,9.39
2023-02-11T15:45:10.513Z,9.35
2023-02-11T15:50:01.199Z,9.31
2023-02-11T15:55:01.160Z,9.26
2023-02-11T16:00:01.220Z,9.22
2023-02-11T16:05:08.348Z,9.16
2023-02-11T16:10:00.528Z,9.13
2023-02-11T16:15:20.417Z,9.05
2023-02-11T16:20:00.659Z,9.02
2023-02-11T16:25:01.109Z,8.96
2023-02-11T16:30:00.717Z,8.88
2023-02-11T16:35:00.510Z,8.82
2023-02-11T16:40:00.508Z,8.74
2023-02-11T16:45:00.534Z,8.66
2023-02-11T16:50:01.864Z,8.60
2023-02-11T16:55:00.520Z,8.55
2023-02-11T17:00:01.528Z,8.51
2023-02-11T17:05:03.122Z,8.48
2023-02-11T17:10:00.649Z,8.44
2023-02-11T17:15:00.539Z,8.39
2023-02-11T17:20:00.801Z,8.35
2023-02-11T17:25:00.631Z,8.33
2023-02-11T17:30:00.618Z,8.29
2023-02-11T17:35:00.505Z,8.25
2023-02-11T17:40:00.524Z,8.20
2023-02-11T17:45:00.541Z,8.12
2023-02-11T17:50:00.517Z,8.03
2023-02-11T17:55:00.578Z,7.97
2023-02-11T18:00:01.392Z,7.93
2023-02-11T18:05:00.551Z,7.91
2023-02-11T18:10:00.582Z,7.90
2023-02-11T18:15:00.557Z,7.89
2023-02-11T18:20:00.507Z,7.88
2023-02-11T18:25:00.826Z,7.88
2023-02-11T18:30:00.734Z,7.87
2023-02-11T18:35:00.526Z,7.88
2023-02-11T18:40:00.530Z,7.88
2023-02-11T18:45:00.673Z,7.87
2023-02-11T18:50:00.521Z,7.87
2023-02-11T18:55:02.405Z,7.84
2023-02-11T19:00:01.171Z,7.82
2023-02-11T19:05:00.672Z,7.82
2023-02-11T19:10:00.611Z,7.82
2023-02-11T19:15:00.519Z,7.80
2023-02-11T19:20:00.538Z,7.80
2023-02-11T19:25:00.569Z,7.78
2023-02-11T19:30:00.528Z,7.77
2023-02-11T19:35:00.515Z,7.76
2023-02-11T19:40:00.680Z,7.75
2023-02-11T19:45:00.540Z,7.74
2023-02-11T19:50:00.568Z,7.73
2023-02-11T19:55:00.528Z,7.73
2023-02-11T20:00:01.274Z,7.73
2023-02-11T20:05:00.506Z,7.73
2023-02-11T20:10:00.599Z,7.72
2023-02-11T20:15:00.534Z,7.71
2023-02-11T20:20:00.510Z,7.69
2023-02-11T20:25:00.528Z,7.70
2023-02-11T20:30:00.580Z,7.70
2023-02-11T20:35:00.518Z,7.70
2023-02-11T20:40:00.611Z,7.67
2023-02-11T20:45:00.549Z,7.65
2023-02-11T20:50:00.533Z,7.63
2023-02-11T20:55:00.515Z,7.63
2023-02-11T21:00:03.138Z,7.62
2023-02-11T21:05:00.499Z,7.63
2023-02-11T21:10:00.537Z,7.62
2023-02-11T21:15:00.574Z,7.62
2023-02-11T21:20:00.732Z,7.60
2023-02-11T21:25:00.525Z,7.57
2023-02-11T21:30:00.966Z,7.58
2023-02-11T21:35:02.277Z,7.59
2023-02-11T21:40:00.549Z,7.58
2023-02-11T21:45:00.529Z,7.58
2023-02-11T21:50:00.563Z,7.57
2023-02-11T21:55:00.552Z,7.57
2023-02-11T22:00:01.576Z,7.55
2023-02-11T22:05:00.650Z,7.53
2023-02-11T22:10:00.592Z,7.50
2023-02-11T22:15:00.587Z,7.46
2023-02-11T22:20:00.533Z,7.43
2023-02-11T22:25:00.560Z,7.42
2023-02-11T22:30:00.560Z,7.43
2023-02-11T22:35:00.940Z,7.42
2023-02-11T22:40:00.514Z,7.40
2023-02-11T22:45:00.558Z,7.40
2023-02-11T22:50:00.585Z,7.39
2023-02-11T22:55:00.632Z,7.39
2023-02-11T23:00:02.503Z,7.37
2023-02-11T23:05:00.766Z,7.34
2023-02-11T23:10:00.557Z,7.32
2023-02-11T23:15:02.127Z,7.30
2023-02-11T23:20:00.553Z,7.31
2023-02-11T23:25:00.517Z,7.31
2023-02-11T23:30:00.696Z,7.31
2023-02-11T23:35:00.516Z,7.33
2023-02-11T23:40:00.669Z,7.34
2023-02-11T23:45:00.820Z,7.34
2023-02-11T23:50:00.536Z,7.32
2023-02-11T23:55:00.795Z,7.31
